Dover, Canada
Current Conditions -  °F | °C
As of 4:48 PM on Saturday 25 Oct 2014 (Local Time) from CYQX Reporting Station
Light Rain Light Rain  
Wind Chill: 32°   Ceiling: 500
Heat Index: 41°   Visibility: 3mi
Dew Point: 41°   Wind: 21mph
Humidity: 100%   Direction: 60°ENE
Pressure: 29.52"   Gusts: 28mph
Location:  48.85°N, 53.98°W
Report Text: CYQX 251848Z 06018G24KT 3SM -RA BR BKN005 BKN009 OVC015 05/05 A2952 RMK SF6SF1SC1 SLP000
Loading
Personal Weather Stations






























Interactive Weather Map
Tropical Storm Tracking
New forecast layout! Learn more

10-Day Weather Forecast

Advertisements
Track Severe Weather on mobile